Time;durP1;ratioP1;P1;durP2;ratioP2;P2;SDS_P1;SDS_P2;PMS_P1;PMS_P2;Temp;Humidity;BMP_temperature;BMP_pressure;BME280_temperature;BME280_humidity;BME280_pressure;Samples;Min_cycle;Max_cycle;Signal;HPM_P1;HPM_P2
2024/03/19 00:00:16;;;;;;;8.52;1.00;;;;;;;;;;4719040;30;20501;-82
2024/03/19 00:02:47;;;;;;;4.88;1.65;;;;;;;;;;4719197;30;20435;-84
2024/03/19 00:05:17;;;;;;;2.55;1.15;;;;;;;;;;4719118;30;20060;-84
2024/03/19 00:07:45;;;;;;;3.47;0.98;;;;;;;;;;4718557;30;20049;-84
2024/03/19 00:10:14;;;;;;;3.97;0.90;;;;;;;;;;4700901;30;20083;-84
2024/03/19 00:12:42;;;;;;;4.68;1.42;;;;;;;;;;4716459;30;20060;-83
2024/03/19 00:15:12;;;;;;;2.67;0.80;;;;;;;;;;4716408;30;20056;-83
2024/03/19 00:17:46;;;;;;;3.95;0.93;;;;;;;;;;4712105;30;20070;-83
2024/03/19 00:20:19;;;;;;;7.97;1.30;;;;;;;;;;4700743;30;20492;-84
2024/03/19 00:22:48;;;;;;;4.50;1.83;;;;;;;;;;4716585;30;20072;-83
2024/03/19 00:25:16;;;;;;;8.18;1.55;;;;;;;;;;4715762;30;20052;-83
2024/03/19 00:27:44;;;;;;;6.13;1.30;;;;;;;;;;4716511;30;20049;-83
2024/03/19 00:30:14;;;;;;;3.92;1.30;;;;;;;;;;4702087;30;20064;-82
2024/03/19 00:32:44;;;;;;;3.47;1.02;;;;;;;;;;4716255;30;20061;-84
2024/03/19 00:35:12;;;;;;;3.03;1.33;;;;;;;;;;4716444;30;20417;-82
2024/03/19 00:37:43;;;;;;;4.82;0.95;;;;;;;;;;4718805;30;20055;-84
2024/03/19 00:40:12;;;;;;;6.78;1.20;;;;;;;;;;4734284;30;20059;-84
2024/03/19 00:42:43;;;;;;;3.58;1.00;;;;;;;;;;4723347;30;20079;-83
2024/03/19 00:45:13;;;;;;;4.43;1.10;;;;;;;;;;4737204;30;20083;-83
2024/03/19 00:47:41;;;;;;;3.17;1.05;;;;;;;;;;4751785;30;20086;-83
2024/03/19 00:50:10;;;;;;;5.18;1.38;;;;;;;;;;4737014;30;20615;-85
2024/03/19 00:52:38;;;;;;;3.33;1.15;;;;;;;;;;4737865;30;20063;-83
2024/03/19 00:55:09;;;;;;;4.00;1.10;;;;;;;;;;4749915;30;20056;-81
2024/03/19 00:57:37;;;;;;;3.88;1.20;;;;;;;;;;4721278;30;20052;-82
2024/03/19 01:00:14;;;;;;;4.07;1.38;;;;;;;;;;4721136;30;20056;-82
2024/03/19 01:02:44;;;;;;;8.80;1.27;;;;;;;;;;4721126;30;20060;-82
2024/03/19 01:05:13;;;;;;;3.40;1.33;;;;;;;;;;4735134;30;20087;-83
2024/03/19 01:07:42;;;;;;;3.55;1.17;;;;;;;;;;4719184;30;20072;-83
2024/03/19 01:10:12;;;;;;;2.30;0.90;;;;;;;;;;4719777;30;20425;-84
2024/03/19 01:12:42;;;;;;;3.25;0.90;;;;;;;;;;4719701;30;20068;-83
2024/03/19 01:15:11;;;;;;;1.08;0.43;;;;;;;;;;4719212;30;20052;-85
2024/03/19 01:17:39;;;;;;;0.82;0.38;;;;;;;;;;4719944;30;20073;-84
2024/03/19 01:20:11;;;;;;;0.63;0.17;;;;;;;;;;4718506;30;20063;-87
2024/03/19 01:22:39;;;;;;;0.30;0.22;;;;;;;;;;4719908;30;20424;-86
2024/03/19 01:25:08;;;;;;;0.50;0.30;;;;;;;;;;4721635;30;20056;-85
2024/03/19 01:27:37;;;;;;;1.98;0.30;;;;;;;;;;4719857;30;20072;-84
2024/03/19 01:30:05;;;;;;;0.65;0.43;;;;;;;;;;4720167;30;20060;-85
2024/03/19 01:32:35;;;;;;;1.65;0.50;;;;;;;;;;4720689;30;20052;-86
2024/03/19 01:35:03;;;;;;;2.88;0.40;;;;;;;;;;4706069;30;20048;-84
2024/03/19 01:37:31;;;;;;;0.85;0.30;;;;;;;;;;4720907;30;20064;-84
2024/03/19 01:40:01;;;;;;;3.00;0.20;;;;;;;;;;4721168;30;20052;-86
2024/03/19 01:42:29;;;;;;;0.17;0.17;;;;;;;;;;4706059;30;20048;-85
2024/03/19 01:45:22;;;;;;;0.70;0.13;;;;;;;;;;4708256;30;20063;-86
2024/03/19 01:47:54;;;;;;;0.73;0.25;;;;;;;;;;4705289;30;20075;-84
2024/03/19 01:50:22;;;;;;;0.40;0.10;;;;;;;;;;4705842;30;20063;-85
2024/03/19 01:52:52;;;;;;;1.88;0.20;;;;;;;;;;4720481;30;20056;-85
2024/03/19 01:55:23;;;;;;;1.63;0.28;;;;;;;;;;4721396;30;20061;-88
2024/03/19 01:57:53;;;;;;;0.38;0.10;;;;;;;;;;4721503;30;20068;-86
2024/03/19 02:00:22;;;;;;;1.13;0.30;;;;;;;;;;4721747;30;20497;-88
2024/03/19 02:02:51;;;;;;;2.40;0.28;;;;;;;;;;4721062;30;20060;-86
2024/03/19 02:05:20;;;;;;;1.45;0.25;;;;;;;;;;4706968;30;20056;-89
2024/03/19 02:07:49;;;;;;;3.45;0.30;;;;;;;;;;4720842;30;20056;-85
2024/03/19 02:10:18;;;;;;;1.15;0.20;;;;;;;;;;4721131;30;20048;-85
2024/03/19 02:12:47;;;;;;;2.75;0.55;;;;;;;;;;4707938;30;20060;-89
2024/03/19 02:15:15;;;;;;;0.40;0.22;;;;;;;;;;4721334;30;20064;-87
2024/03/19 02:17:43;;;;;;;1.27;0.30;;;;;;;;;;4727441;30;20056;-88
2024/03/19 02:20:15;;;;;;;0.20;0.10;;;;;;;;;;4738799;30;20473;-87
2024/03/19 02:22:46;;;;;;;0.93;0.30;;;;;;;;;;4739858;30;20048;-88
2024/03/19 02:25:14;;;;;;;1.55;0.50;;;;;;;;;;4738190;30;20385;-85
2024/03/19 02:27:49;;;;;;;0.40;0.40;;;;;;;;;;4732386;30;20052;-89
2024/03/19 02:30:18;;;;;;;1.60;0.20;;;;;;;;;;4739042;30;20044;-86
2024/03/19 02:32:47;;;;;;;0.95;0.20;;;;;;;;;;4738887;30;20056;-86
2024/03/19 02:35:17;;;;;;;0.50;0.20;;;;;;;;;;4738273;30;20472;-86
2024/03/19 02:37:46;;;;;;;2.67;0.22;;;;;;;;;;4738364;30;20051;-87
2024/03/19 02:40:16;;;;;;;4.25;0.20;;;;;;;;;;4735060;30;20064;-86
2024/03/19 02:42:44;;;;;;;0.65;0.20;;;;;;;;;;4737846;30;20056;-89
2024/03/19 02:45:13;;;;;;;2.10;0.20;;;;;;;;;;4738582;30;20063;-87
2024/03/19 02:47:42;;;;;;;0.45;0.20;;;;;;;;;;4723781;30;20045;-87
2024/03/19 02:50:11;;;;;;;2.33;0.30;;;;;;;;;;4737520;30;20059;-87
2024/03/19 02:52:40;;;;;;;2.58;0.32;;;;;;;;;;4738017;30;20500;-87
2024/03/19 02:55:08;;;;;;;2.05;0.20;;;;;;;;;;4738173;30;20511;-86
2024/03/19 02:57:36;;;;;;;1.15;0.63;;;;;;;;;;4737589;30;20060;-87
2024/03/19 03:00:09;;;;;;;0.30;0.15;;;;;;;;;;4737308;30;20048;-88
2024/03/19 03:02:39;;;;;;;1.27;0.10;;;;;;;;;;4737865;30;20480;-88
2024/03/19 03:05:08;;;;;;;0.88;0.10;;;;;;;;;;4738426;30;20052;-85
2024/03/19 03:07:37;;;;;;;0.50;0.20;;;;;;;;;;4737824;30;20161;-87
2024/03/19 03:10:07;;;;;;;1.75;0.10;;;;;;;;;;4737430;30;20052;-89
2024/03/19 03:12:35;;;;;;;0.70;0.20;;;;;;;;;;4738257;30;20056;-90
2024/03/19 03:15:05;;;;;;;1.98;0.20;;;;;;;;;;4723261;30;20056;-87
2024/03/19 03:17:33;;;;;;;0.30;0.20;;;;;;;;;;4736878;30;20063;-88
2024/03/19 03:20:03;;;;;;;0.50;0.10;;;;;;;;;;4737112;30;20055;-88
2024/03/19 03:22:32;;;;;;;0.98;0.20;;;;;;;;;;4737453;30;20058;-88
2024/03/19 03:25:00;;;;;;;1.23;0.20;;;;;;;;;;4737149;30;20048;-86
2024/03/19 03:27:28;;;;;;;1.45;0.30;;;;;;;;;;4737030;30;20052;-86
2024/03/19 03:29:57;;;;;;;0.40;0.20;;;;;;;;;;4723292;30;20073;-85
2024/03/19 03:32:26;;;;;;;0.10;0.10;;;;;;;;;;4737450;30;20059;-90
2024/03/19 03:34:55;;;;;;;2.53;0.15;;;;;;;;;;4737327;30;20052;-89
2024/03/19 03:37:25;;;;;;;1.55;0.20;;;;;;;;;;4737231;30;20063;-89
2024/03/19 03:39:55;;;;;;;0.20;0.10;;;;;;;;;;4737215;30;20077;-88
2024/03/19 03:42:27;;;;;;;0.40;0.10;;;;;;;;;;4724209;30;20048;-89
2024/03/19 03:44:55;;;;;;;0.40;0.25;;;;;;;;;;4737460;30;20063;-89
2024/03/19 03:47:24;;;;;;;0.40;0.20;;;;;;;;;;4737102;30;20048;-88
2024/03/19 03:49:53;;;;;;;0.70;0.47;;;;;;;;;;4736667;30;20067;-91
2024/03/19 03:52:22;;;;;;;0.60;0.20;;;;;;;;;;4736824;30;20052;-87
2024/03/19 03:54:51;;;;;;;0.70;0.38;;;;;;;;;;4737789;30;20059;-93
2024/03/19 03:57:19;;;;;;;2.22;0.32;;;;;;;;;;4736742;30;20071;-87
2024/03/19 03:59:48;;;;;;;1.05;0.40;;;;;;;;;;4737091;30;20071;-87
2024/03/19 04:02:16;;;;;;;0.52;0.28;;;;;;;;;;4736956;30;20136;-89
2024/03/19 04:04:44;;;;;;;1.95;0.43;;;;;;;;;;4736651;30;20049;-87
2024/03/19 04:07:12;;;;;;;3.45;0.43;;;;;;;;;;4736641;30;20052;-86
2024/03/19 04:09:40;;;;;;;0.70;0.20;;;;;;;;;;4737077;30;20464;-90
2024/03/19 04:12:10;;;;;;;0.77;0.22;;;;;;;;;;4738973;30;20067;-88
2024/03/19 04:14:39;;;;;;;0.40;0.32;;;;;;;;;;4728822;30;20056;-89
2024/03/19 04:17:07;;;;;;;1.42;0.40;;;;;;;;;;4737748;30;20496;-87
2024/03/19 04:19:35;;;;;;;0.60;0.30;;;;;;;;;;4725751;30;20512;-89
2024/03/19 04:22:03;;;;;;;0.63;0.45;;;;;;;;;;4740307;30;20063;-87
2024/03/19 04:24:33;;;;;;;1.88;0.30;;;;;;;;;;4740988;30;20052;-87
2024/03/19 04:27:01;;;;;;;1.60;0.30;;;;;;;;;;4743059;30;20056;-89
2024/03/19 04:29:29;;;;;;;1.88;0.30;;;;;;;;;;4740154;30;20507;-87
2024/03/19 04:31:57;;;;;;;1.33;0.40;;;;;;;;;;4739617;30;20067;-88
2024/03/19 04:34:27;;;;;;;1.45;0.47;;;;;;;;;;4727135;30;20056;-87
2024/03/19 04:36:57;;;;;;;0.63;0.30;;;;;;;;;;4742091;30;20060;-85
2024/03/19 04:39:29;;;;;;;0.52;0.20;;;;;;;;;;4740791;30;20053;-87
2024/03/19 04:41:58;;;;;;;0.70;0.28;;;;;;;;;;4726985;30;20071;-88
2024/03/19 04:44:28;;;;;;;0.75;0.47;;;;;;;;;;4742813;30;20047;-86
2024/03/19 04:46:56;;;;;;;3.38;0.30;;;;;;;;;;4741031;30;20167;-87
2024/03/19 04:49:25;;;;;;;1.48;0.30;;;;;;;;;;4728662;30;20067;-89
2024/03/19 04:51:54;;;;;;;1.02;0.20;;;;;;;;;;4742465;30;20048;-85
2024/03/19 04:54:22;;;;;;;0.30;0.20;;;;;;;;;;4740109;30;20485;-87
2024/03/19 04:56:52;;;;;;;0.95;0.30;;;;;;;;;;4739641;30;20048;-88
2024/03/19 04:59:21;;;;;;;1.63;0.40;;;;;;;;;;4741825;30;20044;-87
2024/03/19 05:01:50;;;;;;;0.22;0.20;;;;;;;;;;4739811;30;20056;-88
2024/03/19 05:04:20;;;;;;;0.43;0.20;;;;;;;;;;4739484;30;20052;-85
2024/03/19 05:06:48;;;;;;;1.15;0.30;;;;;;;;;;4759977;30;20056;-84
2024/03/19 05:09:18;;;;;;;0.63;0.35;;;;;;;;;;4745247;30;20415;-86
2024/03/19 05:11:47;;;;;;;0.38;0.20;;;;;;;;;;4741333;30;20056;-86
2024/03/19 05:14:16;;;;;;;2.00;0.30;;;;;;;;;;4741140;30;20067;-85
2024/03/19 05:16:44;;;;;;;1.15;0.30;;;;;;;;;;4744144;30;20063;-84
2024/03/19 05:19:13;;;;;;;0.50;0.20;;;;;;;;;;4743303;30;20056;-86
2024/03/19 05:21:42;;;;;;;0.73;0.30;;;;;;;;;;4745878;30;20063;-85
2024/03/19 05:24:12;;;;;;;0.60;0.30;;;;;;;;;;4741082;30;20433;-84
2024/03/19 05:26:40;;;;;;;0.70;0.30;;;;;;;;;;4742170;30;20063;-90
2024/03/19 05:29:08;;;;;;;0.73;0.30;;;;;;;;;;4725545;30;20064;-87
2024/03/19 05:31:37;;;;;;;1.60;0.30;;;;;;;;;;4740528;30;20152;-91
2024/03/19 05:34:07;;;;;;;1.35;0.20;;;;;;;;;;4740584;30;20063;-84
2024/03/19 05:36:35;;;;;;;0.60;0.22;;;;;;;;;;4739255;30;20060;-87
2024/03/19 05:39:10;;;;;;;1.02;0.57;;;;;;;;;;4724365;30;20416;-85
2024/03/19 05:41:39;;;;;;;1.10;0.30;;;;;;;;;;4739730;30;20079;-87
2024/03/19 05:44:09;;;;;;;0.82;0.20;;;;;;;;;;4739098;30;20060;-87
2024/03/19 05:46:37;;;;;;;2.78;0.20;;;;;;;;;;4739132;30;20063;-91
2024/03/19 05:49:05;;;;;;;5.75;0.40;;;;;;;;;;4710245;30;20067;-88
2024/03/19 05:51:35;;;;;;;0.22;0.20;;;;;;;;;;4739748;30;20505;-85
2024/03/19 05:54:03;;;;;;;1.63;0.50;;;;;;;;;;4710576;30;20393;-89
2024/03/19 05:56:32;;;;;;;0.85;0.30;;;;;;;;;;4739780;30;20077;-86
2024/03/19 05:59:01;;;;;;;2.33;0.20;;;;;;;;;;4710106;30;20068;-86
2024/03/19 06:01:29;;;;;;;2.63;0.32;;;;;;;;;;4730196;30;20057;-90
2024/03/19 06:04:00;;;;;;;0.45;0.20;;;;;;;;;;4732619;30;20068;-89
2024/03/19 06:06:29;;;;;;;1.50;0.20;;;;;;;;;;4719924;30;20057;-85
2024/03/19 06:08:57;;;;;;;0.25;0.20;;;;;;;;;;4724255;30;20056;-87
2024/03/19 06:11:26;;;;;;;1.85;0.30;;;;;;;;;;4692371;30;20072;-85
2024/03/19 06:13:55;;;;;;;2.95;0.20;;;;;;;;;;4738237;30;20056;-86
2024/03/19 06:16:23;;;;;;;3.28;0.30;;;;;;;;;;4737958;30;20060;-88
2024/03/19 06:18:52;;;;;;;4.10;0.32;;;;;;;;;;4737326;30;20064;-87
2024/03/19 06:21:21;;;;;;;1.65;0.20;;;;;;;;;;4724133;30;20060;-89
2024/03/19 06:23:50;;;;;;;1.27;0.30;;;;;;;;;;4738178;30;20052;-85
2024/03/19 06:26:18;;;;;;;2.13;0.20;;;;;;;;;;4738079;30;20055;-89
2024/03/19 06:28:46;;;;;;;0.50;0.10;;;;;;;;;;4737873;30;20079;-85
2024/03/19 06:31:15;;;;;;;3.42;0.22;;;;;;;;;;4737725;30;20067;-88
2024/03/19 06:33:46;;;;;;;1.63;0.20;;;;;;;;;;4738272;30;20063;-85
2024/03/19 06:44:46;;;;;;;2.45;0.30;;;;;;;;;;4756686;30;20059;-85
2024/03/19 06:47:16;;;;;;;0.47;0.30;;;;;;;;;;4737948;30;20048;-86
2024/03/19 06:49:45;;;;;;;0.35;0.20;;;;;;;;;;4737801;30;20079;-88
2024/03/19 06:52:13;;;;;;;0.70;0.20;;;;;;;;;;4737806;30;20480;-86
2024/03/19 06:54:42;;;;;;;1.52;0.25;;;;;;;;;;4723580;30;20067;-87
2024/03/19 06:57:11;;;;;;;3.50;0.40;;;;;;;;;;4738084;30;20048;-87
2024/03/19 06:59:39;;;;;;;0.88;0.40;;;;;;;;;;4737295;30;20067;-87
2024/03/19 07:02:11;;;;;;;0.50;0.20;;;;;;;;;;4723119;30;20060;-86
2024/03/19 07:04:40;;;;;;;2.25;0.20;;;;;;;;;;4737873;30;20060;-86
2024/03/19 07:07:09;;;;;;;2.40;0.45;;;;;;;;;;4737285;30;20048;-87
2024/03/19 07:09:37;;;;;;;0.70;0.20;;;;;;;;;;4737771;30;20063;-90
2024/03/19 07:12:06;;;;;;;0.82;0.35;;;;;;;;;;4723064;30;20405;-85
2024/03/19 07:14:36;;;;;;;0.10;0.10;;;;;;;;;;4737312;30;20055;-86
2024/03/19 07:17:04;;;;;;;0.40;0.30;;;;;;;;;;4737550;30;20047;-85
2024/03/19 07:19:33;;;;;;;1.85;0.10;;;;;;;;;;4736967;30;20048;-86
2024/03/19 07:22:03;;;;;;;1.35;0.20;;;;;;;;;;4737282;30;20052;-88
2024/03/19 07:24:32;;;;;;;0.80;0.30;;;;;;;;;;4736779;30;20060;-86
2024/03/19 07:27:00;;;;;;;0.45;0.20;;;;;;;;;;4737060;30;20071;-86
2024/03/19 07:29:29;;;;;;;0.25;0.10;;;;;;;;;;4722513;30;20064;-85
2024/03/19 07:31:57;;;;;;;2.38;0.10;;;;;;;;;;4723752;30;20060;-85
2024/03/19 07:34:25;;;;;;;1.10;0.13;;;;;;;;;;4710012;30;20087;-85
2024/03/19 07:36:55;;;;;;;0.40;0.25;;;;;;;;;;4737590;30;20078;-85
2024/03/19 07:39:25;;;;;;;2.60;0.10;;;;;;;;;;4723017;30;20138;-85
2024/03/19 07:41:54;;;;;;;2.47;0.20;;;;;;;;;;4737295;30;20504;-87
2024/03/19 07:44:22;;;;;;;2.05;0.28;;;;;;;;;;4737127;30;20067;-86
2024/03/19 07:46:50;;;;;;;0.43;0.30;;;;;;;;;;4736423;30;20048;-86
2024/03/19 07:49:19;;;;;;;0.93;0.20;;;;;;;;;;4736647;30;20072;-85
2024/03/19 07:51:47;;;;;;;5.32;0.52;;;;;;;;;;4737826;30;20048;-85
2024/03/19 07:54:18;;;;;;;3.15;0.30;;;;;;;;;;4722256;30;20071;-85
2024/03/19 07:56:46;;;;;;;2.15;0.60;;;;;;;;;;4737342;30;20512;-85
2024/03/19 07:59:15;;;;;;;0.20;0.20;;;;;;;;;;4737044;30;20063;-87
2024/03/19 08:01:44;;;;;;;1.10;0.25;;;;;;;;;;4723834;30;20137;-87
2024/03/19 08:04:12;;;;;;;1.67;0.20;;;;;;;;;;4719157;30;20057;-86
2024/03/19 08:06:43;;;;;;;2.55;0.20;;;;;;;;;;4696140;30;20068;-86
2024/03/19 08:09:14;;;;;;;4.05;0.43;;;;;;;;;;4736792;30;20056;-86
2024/03/19 08:11:43;;;;;;;2.80;0.20;;;;;;;;;;4736458;30;20083;-86
2024/03/19 08:14:12;;;;;;;2.85;0.30;;;;;;;;;;4736608;30;20161;-86
2024/03/19 08:16:41;;;;;;;5.07;0.38;;;;;;;;;;4736938;30;20400;-86
2024/03/19 08:19:10;;;;;;;0.80;0.30;;;;;;;;;;4733307;30;20063;-87
2024/03/19 08:21:39;;;;;;;8.10;1.85;;;;;;;;;;4735943;30;20059;-85
2024/03/19 08:24:07;;;;;;;2.53;0.20;;;;;;;;;;4734246;30;20064;-86
2024/03/19 08:26:36;;;;;;;0.98;0.20;;;;;;;;;;4736797;30;20060;-88
2024/03/19 08:29:05;;;;;;;2.28;0.25;;;;;;;;;;4736433;30;20052;-87
2024/03/19 08:31:33;;;;;;;4.00;0.30;;;;;;;;;;4736471;30;20412;-87
2024/03/19 08:34:01;;;;;;;2.97;0.43;;;;;;;;;;4735076;30;20052;-87
2024/03/19 08:36:30;;;;;;;0.77;0.20;;;;;;;;;;4704534;30;20068;-86
2024/03/19 08:38:59;;;;;;;4.40;0.30;;;;;;;;;;4719016;30;20070;-86
2024/03/19 08:41:28;;;;;;;0.30;0.10;;;;;;;;;;4716046;30;20052;-85
2024/03/19 08:43:56;;;;;;;1.13;0.20;;;;;;;;;;4722090;30;20063;-86
2024/03/19 08:46:25;;;;;;;2.92;0.30;;;;;;;;;;4736213;30;20144;-86
2024/03/19 08:48:53;;;;;;;6.63;0.38;;;;;;;;;;4731864;30;20061;-85
2024/03/19 08:51:23;;;;;;;4.38;0.40;;;;;;;;;;4733207;30;20061;-86
2024/03/19 08:53:51;;;;;;;3.40;0.20;;;;;;;;;;4696030;30;20068;-86
2024/03/19 08:56:20;;;;;;;3.88;0.20;;;;;;;;;;4735834;30;20075;-88
2024/03/19 08:58:49;;;;;;;2.25;0.30;;;;;;;;;;4737651;30;20081;-85
2024/03/19 09:01:18;;;;;;;4.60;0.45;;;;;;;;;;4739481;30;20063;-87
2024/03/19 09:03:46;;;;;;;2.92;0.40;;;;;;;;;;4738112;30;20063;-87
2024/03/19 09:06:15;;;;;;;1.67;0.20;;;;;;;;;;4739745;30;20052;-87
2024/03/19 09:08:45;;;;;;;8.90;0.40;;;;;;;;;;4724941;30;20056;-86
2024/03/19 09:11:14;;;;;;;3.00;0.30;;;;;;;;;;4739013;30;20060;-87
2024/03/19 09:13:43;;;;;;;3.90;0.57;;;;;;;;;;4735328;30;20072;-87
2024/03/19 09:16:13;;;;;;;7.70;0.63;;;;;;;;;;4736390;30;20068;-85
2024/03/19 09:18:42;;;;;;;3.75;0.30;;;;;;;;;;4739512;30;20087;-85
2024/03/19 09:21:11;;;;;;;4.80;0.82;;;;;;;;;;4724596;30;20170;-86
2024/03/19 09:23:39;;;;;;;9.48;0.30;;;;;;;;;;4720103;30;20063;-87
2024/03/19 09:26:07;;;;;;;1.65;0.25;;;;;;;;;;4721440;30;20063;-85
2024/03/19 09:28:36;;;;;;;1.05;0.32;;;;;;;;;;4721476;30;20067;-85
2024/03/19 09:31:05;;;;;;;3.45;0.50;;;;;;;;;;4733495;30;20052;-85
2024/03/19 09:33:34;;;;;;;1.10;0.22;;;;;;;;;;4724003;30;20067;-86
2024/03/19 09:36:02;;;;;;;5.50;0.30;;;;;;;;;;4738212;30;20060;-86
2024/03/19 09:38:31;;;;;;;3.60;0.73;;;;;;;;;;4724509;30;20048;-87
2024/03/19 09:41:04;;;;;;;6.13;0.50;;;;;;;;;;4738812;30;20527;-86
2024/03/19 09:43:36;;;;;;;6.53;0.68;;;;;;;;;;4739153;30;20048;-88
2024/03/19 09:46:06;;;;;;;0.30;0.10;;;;;;;;;;4739138;30;20497;-87
2024/03/19 09:48:39;;;;;;;1.35;0.30;;;;;;;;;;4738787;30;20067;-85
2024/03/19 09:51:21;;;;;;;4.80;0.60;;;;;;;;;;4739049;30;20056;-86
2024/03/19 09:53:50;;;;;;;9.70;0.40;;;;;;;;;;4738912;30;20063;-85
2024/03/19 09:56:22;;;;;;;4.13;1.42;;;;;;;;;;4738432;30;20048;-86
2024/03/19 09:58:53;;;;;;;4.43;0.40;;;;;;;;;;4739068;30;20056;-85
2024/03/19 10:01:22;;;;;;;7.25;0.38;;;;;;;;;;4738633;30;20045;-83
2024/03/19 10:03:50;;;;;;;1.55;0.47;;;;;;;;;;4738590;30;20639;-84
2024/03/19 10:06:19;;;;;;;6.82;0.85;;;;;;;;;;4738229;30;20161;-85
2024/03/19 10:08:49;;;;;;;1.95;0.63;;;;;;;;;;4738334;30;20048;-84
2024/03/19 10:11:17;;;;;;;3.75;0.60;;;;;;;;;;4737912;30;20484;-84
2024/03/19 10:13:48;;;;;;;2.08;0.57;;;;;;;;;;4738284;30;20056;-84
2024/03/19 10:16:16;;;;;;;3.97;0.80;;;;;;;;;;4724599;30;20040;-84
2024/03/19 10:18:45;;;;;;;2.53;0.50;;;;;;;;;;4738695;30;20056;-85
2024/03/19 10:21:13;;;;;;;5.75;1.50;;;;;;;;;;4738163;30;20063;-84
2024/03/19 10:23:42;;;;;;;5.03;0.82;;;;;;;;;;4738665;30;20055;-84
2024/03/19 10:26:11;;;;;;;2.72;0.70;;;;;;;;;;4738130;30;20052;-84
2024/03/19 10:28:40;;;;;;;4.07;0.60;;;;;;;;;;4738053;30;20060;-83
2024/03/19 10:31:11;;;;;;;3.10;0.73;;;;;;;;;;4738218;30;20424;-84
2024/03/19 10:33:41;;;;;;;6.47;1.58;;;;;;;;;;4735946;30;20052;-86
2024/03/19 10:36:22;;;;;;;7.53;1.40;;;;;;;;;;4734218;30;20477;-85
2024/03/19 10:38:55;;;;;;;7.00;1.77;;;;;;;;;;4721001;30;20056;-84
2024/03/19 10:41:24;;;;;;;3.78;1.38;;;;;;;;;;4721312;30;20056;-84
2024/03/19 10:43:53;;;;;;;3.58;1.05;;;;;;;;;;4711686;30;20052;-84
2024/03/19 10:46:21;;;;;;;3.60;1.10;;;;;;;;;;4732250;30;20068;-82
2024/03/19 10:48:57;;;;;;;3.55;0.73;;;;;;;;;;4731482;30;20075;-85
2024/03/19 10:51:27;;;;;;;5.57;0.85;;;;;;;;;;4726840;30;20047;-85
2024/03/19 10:53:57;;;;;;;2.80;0.95;;;;;;;;;;4718321;30;20040;-84
2024/03/19 10:56:29;;;;;;;4.30;0.70;;;;;;;;;;4718792;30;20060;-84
2024/03/19 10:58:57;;;;;;;2.25;0.60;;;;;;;;;;4734185;30;20516;-84
2024/03/19 11:01:26;;;;;;;3.05;0.60;;;;;;;;;;4736565;30;20067;-84
2024/03/19 11:03:55;;;;;;;1.70;0.40;;;;;;;;;;4733136;30;20051;-85
2024/03/19 11:06:25;;;;;;;2.15;0.60;;;;;;;;;;4733962;30;20059;-86
2024/03/19 11:08:56;;;;;;;9.65;0.70;;;;;;;;;;4730897;30;20406;-84
2024/03/19 11:11:35;;;;;;;4.70;1.00;;;;;;;;;;4720211;30;20067;-86
2024/03/19 11:14:04;;;;;;;6.10;0.60;;;;;;;;;;4721283;30;20420;-84
2024/03/19 11:16:39;;;;;;;4.80;1.35;;;;;;;;;;4736161;30;20543;-84
2024/03/19 11:19:20;;;;;;;3.00;0.50;;;;;;;;;;4735982;30;20056;-84
2024/03/19 11:21:53;;;;;;;2.22;0.30;;;;;;;;;;4705971;30;20057;-86
2024/03/19 11:24:32;;;;;;;5.18;0.47;;;;;;;;;;4718709;30;20052;-85
2024/03/19 11:27:01;;;;;;;0.60;0.30;;;;;;;;;;4731666;30;20056;-87
2024/03/19 11:29:34;;;;;;;4.18;0.50;;;;;;;;;;4735882;30;20500;-84
2024/03/19 11:32:04;;;;;;;6.55;0.57;;;;;;;;;;4721740;30;20531;-86
2024/03/19 11:34:34;;;;;;;4.65;0.80;;;;;;;;;;4721261;30;20424;-86
2024/03/19 11:37:02;;;;;;;4.22;0.40;;;;;;;;;;4735376;30;20067;-86
2024/03/19 11:39:30;;;;;;;1.42;0.40;;;;;;;;;;4750350;30;20064;-86
2024/03/19 11:41:58;;;;;;;1.67;0.32;;;;;;;;;;4735707;30;20048;-86
2024/03/19 11:44:28;;;;;;;3.10;0.40;;;;;;;;;;4720842;30;20048;-87
2024/03/19 11:46:59;;;;;;;1.77;0.30;;;;;;;;;;4726268;30;20061;-86
2024/03/19 11:49:29;;;;;;;1.00;0.30;;;;;;;;;;4723909;30;20052;-86
2024/03/19 11:52:01;;;;;;;4.68;0.30;;;;;;;;;;4748999;30;20072;-87
2024/03/19 11:54:38;;;;;;;1.75;0.30;;;;;;;;;;4721263;30;20059;-85
2024/03/19 11:57:17;;;;;;;4.38;0.30;;;;;;;;;;4705188;30;20055;-85
2024/03/19 11:59:50;;;;;;;1.25;0.60;;;;;;;;;;4730235;30;20389;-86
2024/03/19 12:02:19;;;;;;;0.82;0.40;;;;;;;;;;4735141;30;20067;-88
2024/03/19 12:04:50;;;;;;;1.92;0.30;;;;;;;;;;4735242;30;20520;-84
2024/03/19 12:07:20;;;;;;;;;;;;;;;;;;4736169;30;20064;-84
2024/03/19 12:09:47;;;;;;;3.10;0.30;;;;;;;;;;4735094;30;19926;-85
2024/03/19 12:12:16;;;;;;;3.65;0.60;;;;;;;;;;4734997;30;20517;-85
2024/03/19 12:14:44;;;;;;;1.02;0.30;;;;;;;;;;4735437;30;20063;-84
2024/03/19 12:17:14;;;;;;;2.10;0.22;;;;;;;;;;4735054;30;20055;-86
2024/03/19 12:19:44;;;;;;;4.78;0.30;;;;;;;;;;4735395;30;20056;-84
2024/03/19 12:22:16;;;;;;;1.85;0.32;;;;;;;;;;4735256;30;20463;-84
2024/03/19 12:24:45;;;;;;;1.98;0.40;;;;;;;;;;4735233;30;20048;-86
2024/03/19 12:27:13;;;;;;;1.20;0.60;;;;;;;;;;4729934;30;20045;-85
2024/03/19 12:29:41;;;;;;;2.13;0.57;;;;;;;;;;4724944;30;20128;-83
2024/03/19 12:32:25;;;;;;;2.22;0.52;;;;;;;;;;4735163;30;20052;-85
2024/03/19 12:35:05;;;;;;;1.88;0.30;;;;;;;;;;4738779;30;20052;-87
2024/03/19 12:37:36;;;;;;;1.40;0.30;;;;;;;;;;4738326;30;20512;-85
2024/03/19 12:40:10;;;;;;;2.58;0.30;;;;;;;;;;4738540;30;20056;-83
2024/03/19 12:42:38;;;;;;;2.03;0.28;;;;;;;;;;4738644;30;20063;-82
2024/03/19 12:45:07;;;;;;;1.27;0.30;;;;;;;;;;4720167;30;20044;-86
2024/03/19 12:47:36;;;;;;;1.98;0.38;;;;;;;;;;4721152;30;20052;-83
2024/03/19 12:50:04;;;;;;;3.97;0.38;;;;;;;;;;4706096;30;20505;-82
2024/03/19 12:52:34;;;;;;;1.02;0.40;;;;;;;;;;4721103;30;20520;-82
2024/03/19 12:55:02;;;;;;;2.25;0.20;;;;;;;;;;4720853;30;20045;-86
2024/03/19 12:57:30;;;;;;;2.78;0.47;;;;;;;;;;4720987;30;20174;-85
2024/03/19 13:00:00;;;;;;;1.45;0.40;;;;;;;;;;4718145;30;20056;-83
2024/03/19 13:02:29;;;;;;;1.58;0.50;;;;;;;;;;4736280;30;20061;-84
2024/03/19 13:04:57;;;;;;;3.80;0.30;;;;;;;;;;4737095;30;20059;-85
2024/03/19 13:07:25;;;;;;;3.15;0.95;;;;;;;;;;4737763;30;20051;-83
2024/03/19 13:09:53;;;;;;;0.85;0.30;;;;;;;;;;4737455;30;20056;-83
2024/03/19 13:12:21;;;;;;;0.47;0.22;;;;;;;;;;4737291;30;20550;-84
2024/03/19 13:14:50;;;;;;;4.38;0.40;;;;;;;;;;4737864;30;20052;-86
2024/03/19 13:17:18;;;;;;;2.15;0.35;;;;;;;;;;4737339;30;20048;-82
2024/03/19 13:19:49;;;;;;;3.58;0.50;;;;;;;;;;4732597;30;20071;-82
2024/03/19 13:22:18;;;;;;;2.58;0.50;;;;;;;;;;4722547;30;20048;-85
2024/03/19 13:24:47;;;;;;;0.75;0.40;;;;;;;;;;4730546;30;20040;-86
2024/03/19 13:27:15;;;;;;;2.70;0.70;;;;;;;;;;4738268;30;20416;-84
2024/03/19 13:29:44;;;;;;;2.95;0.50;;;;;;;;;;4752047;30;20542;-82
2024/03/19 13:32:13;;;;;;;1.05;0.50;;;;;;;;;;4738742;30;20059;-84
2024/03/19 13:34:41;;;;;;;1.30;0.50;;;;;;;;;;4738364;30;20059;-83
2024/03/19 13:37:10;;;;;;;2.47;0.57;;;;;;;;;;4737841;30;20065;-83
2024/03/19 13:39:40;;;;;;;2.22;0.40;;;;;;;;;;4738397;30;20052;-87
2024/03/19 13:42:09;;;;;;;2.47;0.85;;;;;;;;;;4723604;30;20056;-83
2024/03/19 13:44:37;;;;;;;1.92;0.47;;;;;;;;;;4737304;30;20048;-80
2024/03/19 13:47:05;;;;;;;2.05;0.50;;;;;;;;;;4728454;30;20060;-82
2024/03/19 13:49:34;;;;;;;5.00;0.65;;;;;;;;;;4726298;30;20420;-82
2024/03/19 13:52:02;;;;;;;4.03;0.60;;;;;;;;;;4728516;30;20398;-82
2024/03/19 13:54:31;;;;;;;4.82;1.05;;;;;;;;;;4719287;30;20049;-81
2024/03/19 13:57:00;;;;;;;2.40;0.60;;;;;;;;;;4737177;30;20052;-81
2024/03/19 13:59:28;;;;;;;0.98;0.50;;;;;;;;;;4737775;30;20055;-81
2024/03/19 14:01:56;;;;;;;3.50;0.40;;;;;;;;;;4737426;30;20081;-83
2024/03/19 14:04:30;;;;;;;3.55;0.60;;;;;;;;;;4732981;30;20054;-84
2024/03/19 14:07:00;;;;;;;6.07;0.60;;;;;;;;;;4738075;30;20524;-85
2024/03/19 14:09:31;;;;;;;2.80;0.90;;;;;;;;;;4736156;30;20421;-84
2024/03/19 14:11:59;;;;;;;2.35;1.40;;;;;;;;;;4751786;30;20516;-84
2024/03/19 14:14:30;;;;;;;6.95;3.63;;;;;;;;;;4736803;30;20063;-84
2024/03/19 14:16:58;;;;;;;1.77;0.70;;;;;;;;;;4722737;30;20048;-83
2024/03/19 14:19:27;;;;;;;16.40;9.05;;;;;;;;;;4737337;30;20412;-83
2024/03/19 14:21:56;;;;;;;2.90;1.65;;;;;;;;;;4736837;30;20040;-84
2024/03/19 14:24:26;;;;;;;5.50;1.00;;;;;;;;;;4723340;30;20048;-86
2024/03/19 14:26:54;;;;;;;4.82;1.45;;;;;;;;;;4736685;30;20074;-82
2024/03/19 14:29:22;;;;;;;2.15;0.70;;;;;;;;;;4737568;30;20048;-83
2024/03/19 14:31:50;;;;;;;4.75;2.30;;;;;;;;;;4737875;30;20048;-82
2024/03/19 14:34:20;;;;;;;3.65;0.73;;;;;;;;;;4743923;30;20056;-82
2024/03/19 14:36:48;;;;;;;2.15;0.82;;;;;;;;;;4744512;30;20060;-80
2024/03/19 14:39:18;;;;;;;3.53;2.17;;;;;;;;;;4739044;30;20052;-82
2024/03/19 14:41:46;;;;;;;1.35;0.40;;;;;;;;;;4739123;30;20048;-85
2024/03/19 14:44:15;;;;;;;1.17;0.50;;;;;;;;;;4745443;30;20060;-81
2024/03/19 14:46:43;;;;;;;1.10;0.50;;;;;;;;;;4752986;30;20500;-80
2024/03/19 14:49:12;;;;;;;0.90;0.43;;;;;;;;;;4756099;30;20052;-81
2024/03/19 14:51:40;;;;;;;5.50;0.55;;;;;;;;;;4755339;30;20043;-80
2024/03/19 14:54:08;;;;;;;1.08;0.55;;;;;;;;;;4750309;30;20433;-83
2024/03/19 14:56:38;;;;;;;1.63;0.52;;;;;;;;;;4737635;30;20060;-83
2024/03/19 14:59:07;;;;;;;3.97;0.60;;;;;;;;;;4736730;30;20122;-83
2024/03/19 15:01:36;;;;;;;1.55;0.43;;;;;;;;;;4736525;30;20048;-82
2024/03/19 15:04:05;;;;;;;5.55;2.10;;;;;;;;;;4736125;30;20060;-83